Time;durP1;ratioP1;P1;durP2;ratioP2;P2;SDS_P1;SDS_P2;PMS_P1;PMS_P2;Temp;Humidity;BMP_temperature;BMP_pressure;BME280_temperature;BME280_humidity;BME280_pressure;Samples;Min_cycle;Max_cycle;Signal;HPM_P1;HPM_P2
2021/04/07 00:01:27;;;;;;;5.93;1.43;;;;;;;0.07;83.48;101517.69;5134633;27;20102;-41
2021/04/07 00:03:52;;;;;;;8.17;1.63;;;;;;;0.08;84.01;101520.19;5134194;27;20084;-41
2021/04/07 00:06:17;;;;;;;11.20;2.47;;;;;;;0.02;83.55;101512.81;5134719;27;20175;-41
2021/04/07 00:08:47;;;;;;;7.50;1.30;;;;;;;0.03;83.50;101522.47;5134480;27;20434;-41
2021/04/07 00:11:13;;;;;;;9.93;1.30;;;;;;;0.02;84.05;101517.31;5134873;27;20050;-41
2021/04/07 00:13:38;;;;;;;7.40;1.97;;;;;;;0.02;83.56;101518.13;5134055;28;20050;-41
2021/04/07 00:16:04;;;;;;;8.83;1.67;;;;;;;0.02;84.00;101523.44;5134165;28;20027;-41
2021/04/07 00:18:29;;;;;;;5.27;1.40;;;;;;;0.01;83.80;101520.94;5134566;28;20034;-41
2021/04/07 00:20:54;;;;;;;10.87;1.80;;;;;;;0.07;83.45;101517.69;5134522;28;20364;-41
2021/04/07 00:23:20;;;;;;;6.80;1.87;;;;;;;0.07;83.93;101523.84;5134527;27;20023;-41
2021/04/07 00:25:45;;;;;;;7.97;1.40;;;;;;;0.02;84.23;101519.97;5134457;28;20019;-41
2021/04/07 00:28:12;;;;;;;9.07;1.83;;;;;;;0.02;84.13;101528.78;5134455;28;20023;-41
2021/04/07 00:30:38;;;;;;;8.63;2.10;;;;;;;-0.01;84.96;101521.91;5133918;28;20076;-41
2021/04/07 00:33:03;;;;;;;;;;;;;;;0.07;84.61;101523.84;5135338;28;20038;-41
2021/04/07 00:35:29;;;;;;;10.77;2.17;;;;;;;0.02;84.96;101519.97;5134434;27;19907;-41
2021/04/07 00:37:55;;;;;;;13.77;2.23;;;;;;;0.04;85.15;101529.44;5134290;28;20081;-41
2021/04/07 00:40:21;;;;;;;5.93;1.30;;;;;;;0.04;84.16;101533.94;5134121;28;20024;-41
2021/04/07 00:42:50;;;;;;;9.70;1.90;;;;;;;0.08;84.75;101546.81;5133781;28;20211;-41
2021/04/07 00:45:16;;;;;;;7.68;1.38;;;;;;;0.08;84.25;101538.81;5134519;28;20051;-41
2021/04/07 00:47:42;;;;;;;5.43;1.60;;;;;;;0.09;84.58;101553.78;5134047;28;20111;-41
2021/04/07 00:50:10;;;;;;;10.35;1.70;;;;;;;0.10;84.69;101557.28;5134300;28;20027;-41
2021/04/07 00:52:35;;;;;;;7.85;1.90;;;;;;;0.09;84.79;101564.44;5134474;27;20085;-41
2021/04/07 00:55:02;;;;;;;8.03;1.67;;;;;;;0.11;85.21;101561.66;5134333;28;20563;-41
2021/04/07 00:57:27;;;;;;;5.95;1.98;;;;;;;0.06;86.03;101554.09;5134507;28;20106;-42
2021/04/07 00:59:53;;;;;;;9.53;1.90;;;;;;;0.05;86.06;101546.25;5134471;28;20114;-41
2021/04/07 01:02:19;;;;;;;6.87;1.80;;;;;;;0.07;86.72;101547.78;5136728;27;20023;-41
2021/04/07 01:04:46;;;;;;;8.27;1.83;;;;;;;0.08;86.77;101553.94;5138607;27;20023;-42
2021/04/07 01:07:12;;;;;;;5.97;1.60;;;;;;;0.09;86.50;101559.09;5137747;27;20039;-42
2021/04/07 01:09:39;;;;;;;9.63;2.47;;;;;;;0.05;86.67;101547.09;5138233;27;20437;-41
2021/04/07 01:12:05;;;;;;;7.07;2.30;;;;;;;0.05;87.08;101546.25;5137824;27;20038;-41
2021/04/07 01:14:30;;;;;;;;;;;;;;;0.11;85.78;101553.66;5138304;27;20023;-41
2021/04/07 01:16:56;;;;;;;6.40;2.10;;;;;;;0.06;86.64;101554.09;5137548;27;19918;-41
2021/04/07 01:19:24;;;;;;;6.63;2.07;;;;;;;0.06;86.17;101535.47;5137576;27;20058;-41
2021/04/07 01:21:50;;;;;;;7.28;2.35;;;;;;;0.06;86.67;101548.78;5137628;27;20411;-41
2021/04/07 01:24:15;;;;;;;7.68;2.47;;;;;;;0.03;86.84;101537.59;5136834;27;20090;-41
2021/04/07 01:26:41;;;;;;;6.13;2.10;;;;;;;0.04;86.45;101540.09;5137968;27;20050;-41
2021/04/07 01:29:07;;;;;;;4.78;2.17;;;;;;;0.04;87.15;101540.09;5137778;27;20366;-41
2021/04/07 01:31:42;;;;;;;6.13;2.40;;;;;;;0.06;86.25;101532.00;5137219;27;20118;-41
2021/04/07 01:34:07;;;;;;;3.80;2.28;;;;;;;0.03;87.23;101537.59;5136891;27;20027;-41
2021/04/07 01:36:32;;;;;;;5.27;2.60;;;;;;;0.07;87.47;101523.03;5137275;27;20031;-41
2021/04/07 01:38:58;;;;;;;5.43;3.00;;;;;;;0.06;86.74;101527.50;5137062;27;20030;-41
2021/04/07 01:41:23;;;;;;;5.17;2.60;;;;;;;0.07;87.41;101531.00;5137359;27;20023;-41
2021/04/07 01:43:49;;;;;;;6.50;2.70;;;;;;;0.07;87.78;101529.19;5136709;27;20106;-41
2021/04/07 01:46:16;;;;;;;4.60;2.47;;;;;;;0.08;87.57;101530.00;5136891;27;20027;-42
2021/04/07 01:48:41;;;;;;;6.95;3.03;;;;;;;0.09;87.21;101544.97;5136573;27;20530;-41
2021/04/07 01:51:09;;;;;;;6.38;2.75;;;;;;;0.10;86.94;101533.34;5136792;27;20148;-41
2021/04/07 01:53:34;;;;;;;7.80;3.05;;;;;;;0.08;87.45;101525.53;5136789;27;20088;-41
2021/04/07 01:56:00;;;;;;;5.97;2.40;;;;;;;0.08;87.41;101516.72;5136695;27;20459;-41
2021/04/07 01:58:25;;;;;;;11.43;2.57;;;;;;;0.05;87.61;101517.84;5135568;27;20099;-41
2021/04/07 02:00:50;;;;;;;6.70;2.53;;;;;;;0.04;87.13;101513.50;5136299;27;20072;-41
2021/04/07 02:03:15;;;;;;;11.63;2.80;;;;;;;0.05;86.77;101514.34;5136220;27;20031;-41
2021/04/07 02:05:41;;;;;;;10.30;2.90;;;;;;;0.05;87.10;101517.84;5136519;27;20031;-41
2021/04/07 02:08:06;;;;;;;7.30;2.80;;;;;;;0.07;86.88;101526.50;5136148;27;20066;-41
2021/04/07 02:10:31;;;;;;;6.13;2.23;;;;;;;0.08;87.26;101532.66;5136641;27;20111;-41
2021/04/07 02:12:57;;;;;;;7.53;2.93;;;;;;;0.08;87.84;101535.31;5136171;27;20038;-41
2021/04/07 02:15:24;;;;;;;8.82;3.10;;;;;;;0.01;87.98;101535.09;5136413;27;20031;-41
2021/04/07 02:17:50;;;;;;;6.85;2.53;;;;;;;0.01;87.91;101537.75;5136556;27;20027;-41
2021/04/07 02:20:17;;;;;;;6.30;2.50;;;;;;;0.04;87.73;101528.63;5136270;27;20024;-41
2021/04/07 02:22:43;;;;;;;5.57;2.00;;;;;;;0.06;88.31;101532.00;5135763;27;20073;-41
2021/04/07 02:25:11;;;;;;;8.13;2.17;;;;;;;0.05;88.37;101523.19;5136255;27;20023;-41
2021/04/07 02:27:38;;;;;;;8.00;2.25;;;;;;;0.05;88.05;101525.84;5135839;27;20034;-41
2021/04/07 02:30:10;;;;;;;9.70;3.03;;;;;;;0.04;88.03;101526.78;5136591;27;20082;-42
2021/04/07 02:32:35;;;;;;;9.30;2.95;;;;;;;0.04;87.63;101518.81;5135660;27;20032;-42
2021/04/07 02:35:01;;;;;;;7.87;2.57;;;;;;;0.05;87.98;101519.66;5136259;27;20483;-41
2021/04/07 02:37:26;;;;;;;7.30;2.37;;;;;;;0.07;88.25;101515.88;5135872;27;20106;-41
2021/04/07 02:39:52;;;;;;;7.60;2.17;;;;;;;0.08;87.79;101514.88;5134238;27;20459;-41
2021/04/07 02:42:20;;;;;;;8.60;2.57;;;;;;;0.11;87.81;101519.09;5135745;27;20032;-41
2021/04/07 02:44:46;;;;;;;9.70;2.28;;;;;;;0.10;87.70;101515.59;5136047;27;20047;-42
2021/04/07 02:47:11;;;;;;;8.43;2.80;;;;;;;0.11;87.90;101514.59;5136233;27;20034;-41
2021/04/07 02:49:37;;;;;;;8.83;2.50;;;;;;;0.11;87.87;101503.13;5136287;27;20027;-41
2021/04/07 02:52:03;;;;;;;7.43;2.35;;;;;;;0.12;87.99;101510.13;5135663;27;20088;-42
2021/04/07 02:54:28;;;;;;;5.95;2.58;;;;;;;0.11;87.63;101503.13;5136187;27;20027;-41
2021/04/07 02:56:54;;;;;;;11.83;2.33;;;;;;;0.10;87.79;101493.44;5135562;27;20107;-42
2021/04/07 02:59:19;;;;;;;7.97;2.60;;;;;;;0.09;88.17;101505.91;5136119;27;20019;-41
2021/04/07 03:01:45;;;;;;;12.17;3.70;;;;;;;0.06;87.79;101494.75;5135412;27;20023;-41
2021/04/07 03:04:10;;;;;;;7.90;3.03;;;;;;;0.06;88.67;101495.59;5136016;27;20023;-41
2021/04/07 03:06:36;;;;;;;12.40;2.70;;;;;;;0.07;88.24;101499.09;5135526;27;20027;-41
2021/04/07 03:09:01;;;;;;;7.10;2.57;;;;;;;0.07;88.31;101496.44;5135363;27;20107;-41
2021/04/07 03:11:27;;;;;;;6.03;2.50;;;;;;;0.05;nan;101488.59;5135361;27;20332;-41
2021/04/07 03:13:53;;;;;;;7.35;2.70;;;;;;;0.03;88.13;101493.22;5135298;27;20121;-41
2021/04/07 03:16:18;;;;;;;9.73;3.00;;;;;;;0.01;88.04;101491.69;5135348;27;20485;-41
2021/04/07 03:18:43;;;;;;;11.37;2.53;;;;;;;0.02;88.59;101494.22;5134843;27;20033;-41
2021/04/07 03:21:09;;;;;;;10.23;2.13;;;;;;;-0.01;88.49;101483.84;5135402;27;20023;-41
2021/04/07 03:23:34;;;;;;;9.63;2.40;;;;;;;-0.03;87.99;101486.66;5134761;27;20034;-42
2021/04/07 03:26:00;;;;;;;8.60;2.20;;;;;;;-0.02;88.37;101482.19;5134909;27;20031;-42
2021/04/07 03:28:25;;;;;;;10.80;2.30;;;;;;;-0.04;88.37;101473.53;5134946;27;20098;-42
2021/04/07 03:30:51;;;;;;;6.33;1.93;;;;;;;-0.07;88.16;101469.31;5135346;27;20256;-41
2021/04/07 03:33:16;;;;;;;10.00;2.13;;;;;;;-0.07;88.10;101463.16;5135191;27;20510;-41
2021/04/07 03:35:42;;;;;;;13.33;2.63;;;;;;;-0.09;88.39;101475.78;5135506;27;20438;-41
2021/04/07 03:38:07;;;;;;;6.20;1.60;;;;;;;-0.11;87.49;101473.25;5134705;27;20027;-41
2021/04/07 03:40:32;;;;;;;10.90;1.93;;;;;;;-0.13;87.76;101469.09;5134992;27;20038;-41
2021/04/07 03:42:58;;;;;;;8.30;2.63;;;;;;;-0.15;87.74;101473.69;5134659;27;20051;-41
2021/04/07 03:45:23;;;;;;;8.73;2.13;;;;;;;-0.14;87.65;101478.03;5135221;27;20033;-42
2021/04/07 03:47:48;;;;;;;7.60;1.93;;;;;;;-0.11;88.34;101483.88;5135025;27;20023;-41
2021/04/07 03:50:13;;;;;;;7.87;1.87;;;;;;;-0.10;87.51;101480.28;5134985;27;20378;-41
2021/04/07 03:52:39;;;;;;;9.60;1.87;;;;;;;-0.09;87.85;101486.41;5134554;27;20019;-41
2021/04/07 03:55:05;;;;;;;10.37;2.43;;;;;;;-0.07;87.82;101485.28;5134342;27;20482;-41
2021/04/07 03:57:30;;;;;;;11.60;2.25;;;;;;;-0.12;88.88;101479.56;5134499;27;20024;-41
2021/04/07 03:59:55;;;;;;;10.10;2.03;;;;;;;-0.07;88.56;101479.97;5134796;27;20027;-41
2021/04/07 04:02:20;;;;;;;6.97;2.40;;;;;;;-0.04;88.01;101484.16;5134136;27;20066;-41
2021/04/07 04:04:46;;;;;;;11.47;2.27;;;;;;;-0.05;89.18;101471.81;5134425;27;20463;-41
2021/04/07 04:07:11;;;;;;;7.73;2.37;;;;;;;-0.07;88.59;101460.50;5134405;27;20024;-41
2021/04/07 04:09:36;;;;;;;8.77;2.30;;;;;;;-0.02;88.95;101474.19;5134301;27;20047;-41
2021/04/07 04:12:02;;;;;;;10.67;3.07;;;;;;;-0.01;88.86;101475.88;5134400;27;20023;-41
2021/04/07 04:14:27;;;;;;;11.00;2.90;;;;;;;0.01;89.73;101476.56;5134855;27;20080;-41
2021/04/07 04:16:52;;;;;;;7.20;2.60;;;;;;;0.02;89.74;101478.25;5134343;28;20062;-41
2021/04/07 04:19:17;;;;;;;14.60;2.73;;;;;;;0.05;89.20;101483.28;5134440;28;20464;-41
2021/04/07 04:21:43;;;;;;;10.33;2.80;;;;;;;0.06;89.41;101487.63;5134381;28;20031;-40
2021/04/07 04:24:08;;;;;;;12.53;2.83;;;;;;;0.07;89.58;101477.81;5134932;28;20027;-41
2021/04/07 04:26:33;;;;;;;13.50;2.83;;;;;;;0.07;89.52;101488.44;5134792;28;20024;-40
2021/04/07 04:28:59;;;;;;;13.80;2.90;;;;;;;0.06;89.57;101484.94;5134473;27;20530;-40
2021/04/07 04:31:24;;;;;;;9.57;2.77;;;;;;;0.07;89.28;101485.78;5134639;28;20173;-41
2021/04/07 04:33:49;;;;;;;14.23;3.10;;;;;;;0.04;89.24;101480.75;5134625;28;20110;-40
2021/04/07 04:36:15;;;;;;;13.10;3.37;;;;;;;0.04;89.71;101494.88;5135340;27;20509;-41
2021/04/07 04:38:40;;;;;;;10.33;2.60;;;;;;;0.04;89.77;101500.19;5138009;27;20039;-41
2021/04/07 04:41:05;;;;;;;8.90;3.00;;;;;;;0.02;89.47;101502.19;5138539;27;20080;-41
2021/04/07 04:43:31;;;;;;;7.30;2.70;;;;;;;0.01;89.94;101489.88;5137998;27;20475;-40
2021/04/07 04:45:56;;;;;;;8.67;2.90;;;;;;;0.02;89.93;101483.56;5138961;27;20030;-41
2021/04/07 04:48:22;;;;;;;5.43;2.27;;;;;;;0.04;89.50;101472.78;5138151;27;20045;-41
2021/04/07 04:50:47;;;;;;;9.37;2.93;;;;;;;0.05;89.74;101477.97;5138772;27;20031;-41
2021/04/07 04:53:13;;;;;;;13.50;4.95;;;;;;;0.04;89.98;101472.78;5138235;27;20031;-40
2021/04/07 04:55:38;;;;;;;9.33;3.30;;;;;;;0.05;89.72;101461.16;5138778;27;20035;-41
2021/04/07 04:58:03;;;;;;;8.37;3.50;;;;;;;0.07;90.40;101461.84;5137654;27;20102;-40
2021/04/07 05:00:29;;;;;;;9.97;3.80;;;;;;;0.01;90.28;101452.66;5138207;27;20103;-41
2021/04/07 05:02:54;;;;;;;8.13;4.20;;;;;;;0.03;89.79;101445.34;5138253;27;20559;-40
2021/04/07 05:05:19;;;;;;;6.10;3.90;;;;;;;0.02;90.27;101441.03;5136709;27;20035;-41
2021/04/07 05:07:45;;;;;;;10.57;4.30;;;;;;;0.06;89.63;101445.06;5138332;27;20058;-41
2021/04/07 05:10:11;;;;;;;5.43;3.90;;;;;;;0.05;89.91;101440.75;5138487;27;20196;-40
2021/04/07 05:12:36;;;;;;;7.18;4.30;;;;;;;0.07;90.34;101449.38;5137734;27;20041;-41
2021/04/07 05:15:02;;;;;;;6.87;3.40;;;;;;;0.08;89.68;101453.72;5136822;27;20035;-40
2021/04/07 05:17:28;;;;;;;9.30;3.42;;;;;;;0.10;90.32;101462.41;5137241;27;20023;-41
2021/04/07 05:19:54;;;;;;;5.63;3.60;;;;;;;0.10;90.17;101459.75;5137485;27;20439;-41
2021/04/07 05:22:20;;;;;;;8.27;3.22;;;;;;;0.07;90.07;101453.88;5137904;27;20091;-41
2021/04/07 05:24:45;;;;;;;5.93;3.57;;;;;;;0.09;90.55;101451.91;5137573;27;20443;-42
2021/04/07 05:27:11;;;;;;;6.43;3.10;;;;;;;0.05;90.30;101438.06;5137503;27;20023;-41
2021/04/07 05:29:36;;;;;;;9.40;3.30;;;;;;;0.07;90.58;101421.97;5138104;27;20030;-41
2021/04/07 05:32:02;;;;;;;6.73;2.97;;;;;;;0.06;89.99;101436.25;5137416;27;20027;-41
2021/04/07 05:34:27;;;;;;;6.25;2.97;;;;;;;0.08;90.28;101434.28;5137377;27;20026;-42
2021/04/07 05:36:54;;;;;;;5.50;3.13;;;;;;;0.08;89.74;101439.59;5137067;27;20482;-42
2021/04/07 05:39:19;;;;;;;5.55;2.67;;;;;;;0.09;90.22;101430.63;5137364;27;20027;-42
2021/04/07 05:41:44;;;;;;;6.43;2.90;;;;;;;0.05;90.11;101435.41;5137026;27;20039;-40
2021/04/07 05:44:10;;;;;;;6.80;2.47;;;;;;;0.05;90.61;101432.75;5137368;27;20021;-41
2021/04/07 05:46:35;;;;;;;5.90;2.50;;;;;;;0.05;89.55;101430.09;5137015;27;20031;-39
2021/04/07 05:49:00;;;;;;;4.47;2.20;;;;;;;0.06;90.41;101423.78;5135858;27;20025;-40
2021/04/07 05:51:26;;;;;;;8.77;2.57;;;;;;;0.07;90.18;101437.91;5136950;27;20065;-40
2021/04/07 05:53:51;;;;;;;5.67;2.50;;;;;;;0.06;90.27;101433.59;5137269;27;20062;-40
2021/04/07 05:56:16;;;;;;;3.53;1.93;;;;;;;0.05;90.32;101429.22;5137452;27;20015;-40
2021/04/07 05:58:42;;;;;;;5.57;2.43;;;;;;;0.02;90.53;101429.56;5136799;27;20062;-39
2021/04/07 06:01:07;;;;;;;6.60;2.23;;;;;;;-0.01;89.83;101441.31;5136938;27;20030;-39
2021/04/07 06:03:32;;;;;;;5.23;2.57;;;;;;;-0.02;89.79;101439.63;5136784;27;20383;-41
2021/04/07 06:05:58;;;;;;;7.00;2.00;;;;;;;0.00;90.47;101448.31;5136916;27;20058;-40
2021/04/07 06:08:23;;;;;;;4.33;2.30;;;;;;;-0.03;89.97;101444.13;5137179;27;20455;-41
2021/04/07 06:10:49;;;;;;;5.57;2.03;;;;;;;0.00;89.85;101450.97;5137374;27;20035;-41
2021/04/07 06:13:17;;;;;;;4.75;2.25;;;;;;;-0.02;90.72;101442.28;5137081;27;20110;-40
2021/04/07 06:15:43;;;;;;;4.35;1.90;;;;;;;0.03;90.43;101436.53;5136500;27;20055;-41
2021/04/07 06:18:09;;;;;;;;;;;;;;;0.07;89.56;101430.78;5136916;27;20486;-41
2021/04/07 06:20:37;;;;;;;3.92;1.90;;;;;;;0.02;90.42;101419.75;5137304;27;20054;-41
2021/04/07 06:23:05;;;;;;;7.53;1.80;;;;;;;0.02;90.30;101440.19;5136213;27;20458;-41
2021/04/07 06:25:31;;;;;;;5.85;1.98;;;;;;;0.06;90.39;101434.44;5136674;27;20064;-41
2021/04/07 06:28:00;;;;;;;5.32;1.70;;;;;;;0.07;90.51;101432.59;5136814;27;20027;-41
2021/04/07 06:30:45;;;;;;;3.25;1.75;;;;;;;0.06;89.79;101447.72;5136700;27;20091;-40
2021/04/07 06:33:15;;;;;;;5.05;1.90;;;;;;;0.08;90.30;101450.22;5136476;27;20034;-42
2021/04/07 06:35:41;;;;;;;5.60;2.15;;;;;;;0.06;90.49;101452.22;5136568;27;20032;-41
2021/04/07 06:38:07;;;;;;;3.90;1.80;;;;;;;0.06;90.23;101447.72;5136330;27;20042;-40
2021/04/07 06:40:33;;;;;;;2.27;1.47;;;;;;;0.09;90.60;101452.72;5136652;27;20454;-41
2021/04/07 06:43:00;;;;;;;5.63;2.33;;;;;;;0.10;90.44;101462.41;5135935;27;20023;-41
2021/04/07 06:45:26;;;;;;;3.25;1.80;;;;;;;0.10;90.58;101478.38;5135946;27;20033;-40
2021/04/07 06:47:53;;;;;;;4.32;2.17;;;;;;;0.12;90.22;101476.38;5135879;27;20030;-40
2021/04/07 06:50:20;;;;;;;4.72;2.25;;;;;;;0.15;90.64;101486.72;5136525;27;20027;-41
2021/04/07 06:52:46;;;;;;;4.43;2.42;;;;;;;0.16;90.09;101485.75;5135539;27;20034;-41
2021/04/07 06:55:12;;;;;;;3.90;2.30;;;;;;;0.19;89.88;101469.47;5136767;27;20019;-41
2021/04/07 06:57:38;;;;;;;4.43;2.22;;;;;;;0.22;90.51;101492.28;5135531;27;20065;-41
2021/04/07 07:00:07;;;;;;;5.33;2.17;;;;;;;0.22;90.07;101490.47;5135640;27;20031;-41
2021/04/07 07:02:34;;;;;;;4.97;2.30;;;;;;;0.25;90.64;101476.88;5136357;27;20066;-41
2021/04/07 07:05:00;;;;;;;2.63;1.88;;;;;;;0.31;89.61;101499.38;5135971;27;20360;-41
2021/04/07 07:07:26;;;;;;;5.22;2.42;;;;;;;0.37;89.43;101509.44;5135240;27;20079;-41
2021/04/07 07:09:53;;;;;;;4.73;2.30;;;;;;;0.45;89.76;101506.88;5136024;27;20095;-41
2021/04/07 07:12:19;;;;;;;4.25;2.58;;;;;;;0.54;89.46;101513.13;5135435;27;20035;-41
2021/04/07 07:14:46;;;;;;;5.80;2.33;;;;;;;0.56;89.64;101502.34;5135529;27;20023;-41
2021/04/07 07:17:11;;;;;;;4.78;2.33;;;;;;;0.61;89.24;101510.69;5135416;27;20170;-41
2021/04/07 07:19:37;;;;;;;3.47;2.40;;;;;;;0.63;89.42;101514.03;5135646;27;20536;-41
2021/04/07 07:22:06;;;;;;;5.13;3.10;;;;;;;0.65;89.72;101506.75;5135173;27;20462;-41
2021/04/07 07:24:34;;;;;;;5.75;2.92;;;;;;;0.67;88.70;101513.59;5133936;27;20019;-41
2021/04/07 07:27:02;;;;;;;7.20;2.95;;;;;;;0.69;89.32;101514.28;5135318;27;20019;-41
2021/04/07 07:29:30;;;;;;;7.18;3.58;;;;;;;0.75;89.02;101520.84;5135344;27;20035;-41
2021/04/07 07:32:02;;;;;;;7.80;3.47;;;;;;;0.79;89.42;101535.53;5134727;27;20483;-41
2021/04/07 07:34:28;;;;;;;7.40;3.60;;;;;;;0.81;88.99;101546.84;5134770;27;20114;-40
2021/04/07 07:36:54;;;;;;;8.20;3.58;;;;;;;0.83;89.11;101544.03;5134652;27;20051;-40
2021/04/07 07:39:23;;;;;;;;;;;;;;;0.92;88.43;101543.13;5135024;27;20485;-40
2021/04/07 07:41:49;;;;;;;8.25;3.47;;;;;;;0.89;88.85;101544.28;5134993;27;19911;-40
2021/04/07 07:44:15;;;;;;;10.38;3.47;;;;;;;0.95;89.06;101550.84;5134862;27;20122;-40
2021/04/07 07:46:41;;;;;;;11.07;3.95;;;;;;;1.00;89.65;101553.88;5134820;27;20027;-40
2021/04/07 07:49:17;;;;;;;16.67;4.10;;;;;;;1.09;90.19;101550.31;5135044;27;20374;-40
2021/04/07 07:51:47;;;;;;;14.43;3.77;;;;;;;1.15;90.09;101562.19;5134713;27;20046;-40
2021/04/07 07:54:14;;;;;;;15.77;3.55;;;;;;;1.18;90.07;101546.75;5135411;27;20023;-40
2021/04/07 07:56:39;;;;;;;16.33;3.92;;;;;;;1.20;90.27;101559.91;5134838;27;20128;-40
2021/04/07 07:59:05;;;;;;;13.87;4.00;;;;;;;1.24;90.35;101562.09;5134622;27;20031;-40
2021/04/07 08:01:41;;;;;;;12.97;3.73;;;;;;;1.31;90.04;101567.66;5135328;27;20023;-40
2021/04/07 08:04:06;;;;;;;13.65;3.80;;;;;;;1.38;90.64;101565.22;5135330;27;20023;-41
2021/04/07 08:06:32;;;;;;;20.10;4.20;;;;;;;1.44;90.35;101570.78;5134823;27;20467;-40
2021/04/07 08:08:57;;;;;;;15.77;4.07;;;;;;;1.50;89.95;101577.31;5134238;27;20058;-40
2021/04/07 08:11:23;;;;;;;13.03;3.60;;;;;;;1.53;90.15;101588.53;5133791;27;20327;-40
2021/04/07 08:13:52;;;;;;;20.23;4.57;;;;;;;1.58;90.66;101590.72;5134669;27;20054;-40
2021/04/07 08:16:20;;;;;;;14.80;4.03;;;;;;;1.63;90.11;101596.44;5134323;27;20038;-40
2021/04/07 08:18:47;;;;;;;13.02;4.15;;;;;;;1.66;90.16;101596.13;5134316;28;20084;-40
2021/04/07 08:21:17;;;;;;;15.70;3.50;;;;;;;1.79;89.89;101614.38;5134211;28;20031;-40
2021/04/07 08:23:44;;;;;;;19.00;3.97;;;;;;;1.90;89.86;101619.47;5134294;28;20027;-41
2021/04/07 08:26:10;;;;;;;19.00;4.00;;;;;;;2.14;89.94;101618.78;5134201;28;20494;-40
2021/04/07 08:28:40;;;;;;;14.35;4.40;;;;;;;2.40;89.12;101612.63;5134166;28;20106;-41
2021/04/07 08:31:11;;;;;;;18.70;5.07;;;;;;;2.61;88.25;101607.72;5134476;28;20375;-40
2021/04/07 08:33:36;;;;;;;24.77;4.60;;;;;;;2.74;88.00;101615.28;5134154;28;20031;-40
2021/04/07 08:36:02;;;;;;;25.97;6.20;;;;;;;2.78;87.96;101620.16;5134259;28;20474;-40
2021/04/07 08:38:33;;;;;;;28.50;5.60;;;;;;;2.83;87.13;101616.97;5134120;28;20027;-41
2021/04/07 08:41:13;;;;;;;25.25;5.10;;;;;;;2.85;87.86;101615.00;5134624;28;20027;-40
2021/04/07 08:43:39;;;;;;;33.10;5.45;;;;;;;2.84;87.53;101629.34;5133879;28;20494;-40
2021/04/07 08:46:11;;;;;;;26.73;5.18;;;;;;;2.89;87.73;101629.72;5134088;28;20467;-40
2021/04/07 08:48:37;;;;;;;25.65;5.18;;;;;;;2.91;87.74;101626.88;5133988;28;20079;-40
2021/04/07 08:51:04;;;;;;;32.50;6.80;;;;;;;2.95;87.51;101622.88;5134316;28;20071;-40
2021/04/07 08:53:31;;;;;;;30.38;6.97;;;;;;;2.99;87.85;101629.56;5133933;28;20052;-41
2021/04/07 08:55:57;;;;;;;36.17;6.13;;;;;;;3.05;87.39;101628.91;5134503;28;20449;-40
2021/04/07 08:58:26;;;;;;;25.33;5.47;;;;;;;3.05;86.92;101651.13;5134224;28;20168;-40
2021/04/07 09:00:57;;;;;;;25.60;6.32;;;;;;;3.09;87.04;101665.00;5134503;28;20031;-41
2021/04/07 09:03:27;;;;;;;29.48;6.07;;;;;;;3.05;87.30;101674.34;5133853;28;20031;-40
2021/04/07 09:05:54;;;;;;;18.60;3.85;;;;;;;3.01;86.39;101670.31;5134683;28;20134;-40
2021/04/07 09:08:24;;;;;;;22.23;5.38;;;;;;;3.02;86.56;101671.97;5133755;28;20024;-40
2021/04/07 09:10:52;;;;;;;27.45;4.65;;;;;;;3.09;86.58;101673.88;5133942;28;20039;-40
2021/04/07 09:13:20;;;;;;;14.73;4.00;;;;;;;3.14;86.47;101669.88;5134051;28;20039;-40
2021/04/07 09:15:45;;;;;;;17.48;3.33;;;;;;;3.11;84.74;101687.06;5134100;28;20023;-40
2021/04/07 09:18:11;;;;;;;18.33;3.50;;;;;;;3.10;84.46;101675.53;5133791;28;20027;-40
2021/04/07 09:20:51;;;;;;;15.33;3.93;;;;;;;3.09;84.70;101671.19;5134368;28;20104;-40
2021/04/07 09:23:29;;;;;;;19.08;4.13;;;;;;;3.23;84.40;101669.75;5136995;27;20372;-40
2021/04/07 09:25:58;;;;;;;16.15;3.20;;;;;;;3.42;84.40;101679.31;5138292;27;20034;-41
2021/04/07 09:28:32;;;;;;;21.17;4.07;;;;;;;3.57;84.65;101679.50;5137360;27;20429;-46
2021/04/07 09:31:08;;;;;;;25.42;5.15;;;;;;;3.71;83.45;101678.88;5137661;27;20027;-40
2021/04/07 09:33:37;;;;;;;20.00;3.92;;;;;;;3.99;83.02;101689.22;5137676;27;20039;-41
2021/04/07 09:36:02;;;;;;;18.48;4.00;;;;;;;4.13;83.09;101689.41;5137283;27;20057;-40
2021/04/07 09:38:30;;;;;;;17.90;3.80;;;;;;;4.34;82.83;101686.22;5137559;27;20027;-40
2021/04/07 09:41:29;;;;;;;21.83;4.82;;;;;;;4.57;82.57;101693.53;5138010;27;20374;-41
2021/04/07 09:43:58;;;;;;;21.52;4.40;;;;;;;4.77;82.10;101694.81;5094010;28;20040;-40
2021/04/07 09:46:24;;;;;;;17.95;4.60;;;;;;;4.95;80.68;101683.03;5094098;28;20438;-41
2021/04/07 09:48:52;;;;;;;20.25;4.93;;;;;;;4.99;79.54;101692.41;5094513;28;20047;-40
2021/04/07 09:51:28;;;;;;;23.25;5.93;;;;;;;5.04;78.09;101692.72;5093983;28;20079;-41
2021/04/07 09:54:25;;;;;;;22.70;4.60;;;;;;;5.18;78.76;101700.03;5093874;28;20035;-40
2021/04/07 09:57:11;;;;;;;17.67;3.63;;;;;;;5.38;77.88;101701.25;5093642;28;20031;-40
2021/04/07 09:59:42;;;;;;;16.98;4.05;;;;;;;5.28;75.30;101706.00;5094065;28;20078;-40
2021/04/07 10:02:37;;;;;;;28.33;4.40;;;;;;;5.14;76.42;101718.31;5093677;28;20066;-40
2021/04/07 10:05:02;;;;;;;26.48;4.65;;;;;;;4.93;75.10;101720.75;5033622;28;20044;-40
2021/04/07 10:07:30;;;;;;;19.50;3.57;;;;;;;4.83;75.12;101717.41;5033544;28;20486;-40
2021/04/07 10:10:00;;;;;;;25.35;3.70;;;;;;;4.77;75.14;101729.63;5033212;28;20057;-40
2021/04/07 10:12:27;;;;;;;18.67;4.03;;;;;;;4.84;75.81;101724.44;5033329;28;20121;-40
2021/04/07 10:15:02;;;;;;;16.42;3.17;;;;;;;5.04;75.49;101727.56;5033290;28;20045;-40
2021/04/07 10:17:37;;;;;;;14.35;3.78;;;;;;;4.96;74.62;101725.75;5033659;28;20049;-40
2021/04/07 10:20:12;;;;;;;17.80;3.78;;;;;;;4.89;75.40;101735.50;5042180;28;20041;-40
2021/04/07 10:22:39;;;;;;;17.40;4.25;;;;;;;4.85;75.35;101735.00;5053578;28;20044;-40
2021/04/07 10:27:39;;;;;;;26.15;5.30;;;;;;;4.71;76.27;101746.41;5053124;28;20037;-40
2021/04/07 10:30:12;;;;;;;19.25;3.78;;;;;;;4.78;75.88;101752.78;5052816;28;20112;-41
2021/04/07 10:32:40;;;;;;;13.10;3.08;;;;;;;4.88;74.25;101761.47;5052723;28;20063;-40
2021/04/07 10:35:06;;;;;;;25.20;4.90;;;;;;;5.05;73.07;101766.75;5052275;28;20044;-40
2021/04/07 10:37:31;;;;;;;25.75;5.00;;;;;;;5.17;74.37;101741.25;5052551;28;20049;-40
2021/04/07 10:39:57;;;;;;;25.77;4.40;;;;;;;5.19;73.23;101755.31;5053408;28;20068;-40
2021/04/07 10:42:22;;;;;;;21.87;3.97;;;;;;;5.27;73.15;101765.16;5127109;27;20039;-40
2021/04/07 10:45:04;;;;;;;16.73;4.10;;;;;;;5.39;72.89;101770.00;5136074;27;20034;-40
2021/04/07 10:47:39;;;;;;;16.30;3.92;;;;;;;5.39;73.93;101791.44;5136265;27;20026;-40
2021/04/07 10:50:06;;;;;;;28.13;5.13;;;;;;;5.11;75.26;101792.88;5136429;27;20023;-40
2021/04/07 10:52:37;;;;;;;21.52;3.88;;;;;;;4.94;75.66;101791.25;5135789;27;20119;-40
2021/04/07 10:55:20;;;;;;;18.15;4.43;;;;;;;4.75;76.64;101804.03;5135882;27;20447;-46
2021/04/07 10:57:49;;;;;;;17.30;3.88;;;;;;;4.67;76.89;101804.00;5136245;27;20019;-40
2021/04/07 11:00:35;;;;;;;16.08;3.95;;;;;;;4.73;76.96;101802.50;5135701;27;20062;-40
2021/04/07 11:03:01;;;;;;;23.95;4.95;;;;;;;4.77;76.02;101807.34;5135500;27;20027;-40
2021/04/07 11:05:39;;;;;;;17.93;3.83;;;;;;;4.87;74.38;101805.31;5135853;27;20425;-40
2021/04/07 11:08:06;;;;;;;13.70;3.42;;;;;;;5.08;73.52;101796.75;5135741;27;20275;-40
2021/04/07 11:10:45;;;;;;;17.77;3.72;;;;;;;5.30;72.11;101805.06;5136624;27;20286;-41
2021/04/07 11:13:12;;;;;;;13.63;3.03;;;;;;;5.44;70.05;101804.34;5135879;27;20027;-40
2021/04/07 11:15:40;;;;;;;11.43;2.67;;;;;;;5.55;68.11;101803.13;5135497;27;20030;-41
2021/04/07 11:18:06;;;;;;;10.45;2.53;;;;;;;5.57;68.44;101804.63;5135322;27;20122;-40
2021/04/07 11:20:32;;;;;;;14.40;2.95;;;;;;;5.59;66.15;101809.81;5135794;27;20034;-40
2021/04/07 11:22:58;;;;;;;11.52;2.80;;;;;;;5.58;66.46;101803.63;5134858;27;20113;-41
2021/04/07 11:25:24;;;;;;;14.75;3.28;;;;;;;5.60;64.64;101812.31;5135128;27;20107;-41
2021/04/07 11:27:52;;;;;;;9.35;2.38;;;;;;;5.52;65.76;101817.72;5135504;27;20518;-41
2021/04/07 11:30:17;;;;;;;14.18;2.50;;;;;;;5.46;69.01;101830.97;5135710;27;20069;-41
2021/04/07 11:32:47;;;;;;;13.93;3.15;;;;;;;5.36;70.88;101834.69;5135039;27;20027;-41